Time;durP1;ratioP1;P1;durP2;ratioP2;P2;SDS_P1;SDS_P2;PMS_P1;PMS_P2;Temp;Humidity;BMP_temperature;BMP_pressure;BME280_temperature;BME280_humidity;BME280_pressure;Samples;Min_cycle;Max_cycle;Signal;HPM_P1;HPM_P2
2021/06/18 00:00:38;;;;;;;24.23;21.83;;;;;;;16.25;nan;99347.31;2104680;28;20538;-78
2021/06/18 00:01:39;;;;;;;23.03;20.83;;;;;;;16.25;nan;99347.31;2104297;28;20459;-78
2021/06/18 00:02:40;;;;;;;23.13;21.13;;;;;;;16.23;nan;99349.50;2104471;28;20221;-78
2021/06/18 00:03:42;;;;;;;24.10;21.70;;;;;;;16.16;nan;99343.88;2105154;28;20463;-78
2021/06/18 00:04:43;;;;;;;23.00;20.73;;;;;;;16.18;nan;99351.63;2104368;28;20233;-78
2021/06/18 00:05:45;;;;;;;23.30;21.10;;;;;;;16.14;nan;99313.00;2096091;28;20444;-78
2021/06/18 00:06:45;;;;;;;22.70;20.37;;;;;;;16.13;nan;99387.59;2095750;28;20222;-78
2021/06/18 00:07:48;;;;;;;23.60;21.43;;;;;;;16.13;nan;99349.91;2095872;28;20448;-78
2021/06/18 00:08:49;;;;;;;24.73;22.37;;;;;;;16.13;nan;99343.72;2104267;28;20225;-78
2021/06/18 00:09:51;;;;;;;23.33;21.07;;;;;;;;;;2103952;28;20459;-78
2021/06/18 00:10:52;;;;;;;23.37;21.17;;;;;;;16.08;nan;99304.34;2104394;28;20259;-78
2021/06/18 00:11:53;;;;;;;23.87;21.77;;;;;;;;;;2104083;28;21001;-78
2021/06/18 00:12:55;;;;;;;24.67;22.13;;;;;;;16.04;nan;99351.84;2104281;28;20245;-77
2021/06/18 00:13:58;;;;;;;23.07;21.03;;;;;;;15.99;nan;99334.00;2104401;28;20492;-78
2021/06/18 00:14:59;;;;;;;24.17;21.40;;;;;;;15.99;nan;99354.72;2105102;28;20447;-77
2021/06/18 00:16:01;;;;;;;23.57;21.10;;;;;;;15.95;nan;99348.41;2105044;28;20485;-78
2021/06/18 00:17:02;;;;;;;24.27;21.80;;;;;;;15.95;nan;99348.41;2103474;28;20458;-78
2021/06/18 00:18:04;;;;;;;24.37;21.97;;;;;;;15.93;nan;99356.81;2095719;28;20453;-78
2021/06/18 00:19:05;;;;;;;23.00;20.83;;;;;;;15.88;nan;99348.13;2096129;28;20479;-78
2021/06/18 00:20:09;;;;;;;27.07;21.00;;;;;;;15.88;nan;99358.88;2104447;28;20527;-77
2021/06/18 00:21:10;;;;;;;23.13;21.13;;;;;;;15.85;nan;99344.19;2104718;28;20698;-78
2021/06/18 00:22:11;;;;;;;23.63;21.33;;;;;;;15.83;nan;99346.41;2105068;28;20865;-78
2021/06/18 00:23:12;;;;;;;23.13;21.03;;;;;;;15.78;nan;99350.06;2105028;28;20213;-78
2021/06/18 00:24:14;;;;;;;25.03;21.50;;;;;;;15.79;nan;99340.09;2104567;28;20857;-78
2021/06/18 00:25:15;;;;;;;23.60;21.43;;;;;;;15.77;nan;99348.50;2104484;28;20268;-78
2021/06/18 00:26:17;;;;;;;24.13;21.93;;;;;;;15.76;nan;99351.50;2103874;28;20455;-78
2021/06/18 00:27:17;;;;;;;22.87;20.70;;;;;;;15.75;nan;99301.50;2104272;28;20241;-78
2021/06/18 00:28:19;;;;;;;24.73;21.80;;;;;;;15.71;nan;99328.25;2104842;28;20487;-78
2021/06/18 00:29:21;;;;;;;24.10;21.73;;;;;;;15.68;nan;99307.38;2105030;28;20224;-78
2021/06/18 00:30:24;;;;;;;23.43;21.10;;;;;;;15.71;nan;99381.25;2105141;28;20771;-78
2021/06/18 00:31:24;;;;;;;23.77;21.47;;;;;;;15.69;nan;99335.84;2103411;28;20448;-77
2021/06/18 00:32:26;;;;;;;23.93;21.43;;;;;;;15.69;nan;99340.44;2104086;28;20460;-78
2021/06/18 00:33:29;;;;;;;23.83;21.53;;;;;;;15.70;nan;99336.66;2104266;28;20332;-78
2021/06/18 00:34:31;;;;;;;24.37;21.90;;;;;;;15.69;nan;99335.84;2104233;28;20451;-78
2021/06/18 00:35:32;;;;;;;23.23;20.93;;;;;;;15.68;nan;99338.88;2104272;28;20929;-78
2021/06/18 00:36:34;;;;;;;23.27;20.77;;;;;;;15.63;nan;99321.00;2095194;28;20868;-78
2021/06/18 00:37:35;;;;;;;23.40;20.93;;;;;;;15.68;nan;99344.25;2095877;28;20263;-78
2021/06/18 00:38:37;;;;;;;22.57;20.27;;;;;;;15.65;nan;99340.31;2097497;28;20525;-78
2021/06/18 00:39:37;;;;;;;22.30;20.37;;;;;;;15.69;nan;99335.84;2105946;28;20296;-78
2021/06/18 00:40:40;;;;;;;23.67;21.33;;;;;;;15.67;nan;99332.72;2105411;28;20475;-78
2021/06/18 00:41:40;;;;;;;22.43;20.40;;;;;;;;;;2106015;28;20579;-77
2021/06/18 00:42:42;;;;;;;23.10;20.90;;;;;;;15.67;nan;99338.09;2105804;28;20535;-78
2021/06/18 00:43:43;;;;;;;23.23;20.83;;;;;;;15.65;nan;99334.94;2096600;28;20222;-78
2021/06/18 00:44:46;;;;;;;22.03;20.03;;;;;;;15.63;nan;99374.78;2105174;28;20444;-78
2021/06/18 00:45:47;;;;;;;22.57;20.57;;;;;;;15.66;nan;99336.50;2104923;28;20984;-78
2021/06/18 00:46:50;;;;;;;25.73;21.87;;;;;;;15.64;nan;99333.38;2105933;28;20825;-78
2021/06/18 00:47:55;;;;;;;23.20;20.90;;;;;;;15.63;nan;99325.59;2106770;28;20577;-78
2021/06/18 00:48:57;;;;;;;22.63;20.53;;;;;;;15.61;nan;99323.22;2106140;28;20459;-78
2021/06/18 00:49:58;;;;;;;23.80;21.37;;;;;;;;;;2106524;28;20466;-78
2021/06/18 00:51:00;;;;;;;22.80;20.53;;;;;;;15.60;nan;99320.84;2106621;28;20463;-78
2021/06/18 00:52:01;;;;;;;23.87;21.40;;;;;;;15.61;nan;99339.38;2106497;28;20229;-77
2021/06/18 00:53:03;;;;;;;23.23;21.10;;;;;;;15.61;nan;99350.13;2105628;28;20973;-78
2021/06/18 00:54:04;;;;;;;22.40;20.33;;;;;;;15.57;nan;99283.84;2105702;28;20460;-78
2021/06/18 00:55:07;;;;;;;22.03;20.03;;;;;;;15.63;nan;99341.72;2105647;28;20444;-78
2021/06/18 00:56:08;;;;;;;23.33;21.03;;;;;;;;;;2097079;28;20456;-77
2021/06/18 00:57:09;;;;;;;22.80;20.70;;;;;;;15.59;nan;99379.22;2105911;28;20451;-77
2021/06/18 00:58:11;;;;;;;23.17;21.10;;;;;;;15.57;nan;99284.63;2105511;28;20226;-78
2021/06/18 00:59:12;;;;;;;24.23;21.73;;;;;;;15.58;nan;99334.63;2105812;28;20451;-78
2021/06/18 01:00:16;;;;;;;23.63;21.50;;;;;;;15.56;nan;99331.47;2105600;28;20451;-77
2021/06/18 01:01:17;;;;;;;23.37;20.90;;;;;;;15.50;nan;99348.88;2096884;28;20448;-78
2021/06/18 01:02:19;;;;;;;23.80;21.50;;;;;;;15.53;nan;99321.31;2097368;28;20483;-78
2021/06/18 01:03:20;;;;;;;24.10;21.60;;;;;;;15.53;nan;99342.84;2105699;28;20225;-78
2021/06/18 01:04:25;;;;;;;22.77;20.77;;;;;;;15.51;nan;99323.56;2106443;28;20491;-78
2021/06/18 01:05:27;;;;;;;24.57;22.37;;;;;;;15.46;nan;99321.84;2105261;28;20221;-78
2021/06/18 01:06:32;;;;;;;23.50;21.40;;;;;;;15.49;nan;99325.78;2105672;28;20451;-77
2021/06/18 01:07:35;;;;;;;23.40;21.03;;;;;;;15.47;nan;99322.63;2105534;28;20447;-78
2021/06/18 01:08:41;;;;;;;22.30;20.30;;;;;;;15.42;nan;99299.38;2097359;28;20990;-78
2021/06/18 01:09:48;;;;;;;22.90;20.80;;;;;;;15.44;nan;99296.38;2105058;28;20479;-78
2021/06/18 01:10:54;;;;;;;23.73;20.80;;;;;;;15.44;nan;99318.66;2106362;28;20447;-78
2021/06/18 01:11:58;;;;;;;23.27;21.00;;;;;;;15.43;nan;99311.72;2105088;28;20470;-77
2021/06/18 01:13:09;;;;;;;22.80;20.80;;;;;;;15.43;nan;99317.09;2105582;28;20451;-78
2021/06/18 01:14:12;;;;;;;24.23;21.73;;;;;;;15.43;nan;99354.75;2106002;28;20538;-78
2021/06/18 01:15:18;;;;;;;23.00;20.60;;;;;;;15.41;nan;99307.78;2104813;28;20447;-78
2021/06/18 01:16:22;;;;;;;22.63;20.57;;;;;;;15.42;nan;99315.53;2097248;28;20455;-78
2021/06/18 01:17:25;;;;;;;22.53;20.63;;;;;;;15.41;nan;99302.41;2095988;28;20506;-78
2021/06/18 01:18:30;;;;;;;23.07;20.97;;;;;;;15.41;nan;99356.19;2097286;28;20475;-78
2021/06/18 01:19:40;;;;;;;23.60;21.40;;;;;;;;;;2105564;28;20512;-78
2021/06/18 01:20:55;;;;;;;23.10;20.73;;;;;;;-144.27;0.00;69759.91;2105936;28;20455;-78
2021/06/18 01:21:59;;;;;;;24.43;21.03;;;;;;;15.38;nan;99303.84;2105933;28;20455;-78
2021/06/18 01:23:02;;;;;;;23.10;20.70;;;;;;;15.37;nan;99296.06;2105398;28;20443;-78
2021/06/18 01:24:14;;;;;;;22.30;20.58;;;;;;;15.38;nan;99293.09;2104921;28;20475;-78
2021/06/18 01:25:18;;;;;;;23.60;21.13;;;;;;;;;;2105424;28;20259;-77
2021/06/18 01:26:31;;;;;;;23.53;21.43;;;;;;;15.35;nan;99292.91;2105098;28;21065;-78
2021/06/18 01:27:43;;;;;;;23.23;20.75;;;;;;;15.33;nan;99295.94;2105324;28;20446;-77
2021/06/18 01:28:50;;;;;;;22.43;20.43;;;;;;;15.31;nan;99292.00;2105714;28;20307;-78
2021/06/18 01:29:54;;;;;;;22.90;20.73;;;;;;;15.31;nan;99303.53;2105410;28;20466;-78
2021/06/18 01:30:56;;;;;;;24.15;21.52;;;;;;;15.31;nan;99308.13;2105093;28;20463;-78
2021/06/18 01:31:59;;;;;;;23.60;20.57;;;;;;;15.27;nan;99292.63;2106061;28;20596;-78
2021/06/18 01:33:04;;;;;;;23.23;21.03;;;;;;;15.27;nan;99303.38;2106051;28;20482;-78
2021/06/18 01:34:10;;;;;;;23.13;21.03;;;;;;;15.25;nan;99300.22;2106212;28;20466;-78
2021/06/18 01:35:15;;;;;;;23.43;21.07;;;;;;;15.23;nan;99296.28;2105860;28;20459;-79
2021/06/18 01:36:16;;;;;;;23.70;21.50;;;;;;;15.21;nan;99293.94;2106176;28;20519;-79
2021/06/18 01:37:21;;;;;;;23.03;20.93;;;;;;;15.19;nan;99289.97;2105379;28;20797;-78
2021/06/18 01:38:22;;;;;;;23.60;21.10;;;;;;;15.16;nan;99279.84;2105561;28;20905;-79
2021/06/18 01:39:24;;;;;;;22.63;20.47;;;;;;;15.14;nan;99309.75;2104965;28;20558;-77
2021/06/18 01:40:27;;;;;;;22.77;20.77;;;;;;;15.16;nan;99307.53;2105438;28;20492;-78
2021/06/18 01:41:31;;;;;;;23.37;21.27;;;;;;;-144.27;0.00;69759.91;2106082;28;20534;-78
2021/06/18 01:42:33;;;;;;;23.27;21.13;;;;;;;15.14;nan;99293.63;2105904;28;20487;-78
2021/06/18 01:43:35;;;;;;;23.27;21.27;;;;;;;15.13;nan;99302.81;2106074;28;20444;-78
2021/06/18 01:44:38;;;;;;;23.53;21.37;;;;;;;15.09;nan;99291.09;2105699;28;20463;-78
2021/06/18 01:45:42;;;;;;;23.73;21.30;;;;;;;15.11;nan;99299.63;2105776;28;20471;-78
2021/06/18 01:46:43;;;;;;;22.80;20.63;;;;;;;15.10;nan;99303.41;2105230;28;20615;-77
2021/06/18 01:47:47;;;;;;;23.23;20.87;;;;;;;15.09;nan;99311.81;2096806;28;20459;-78
2021/06/18 01:48:49;;;;;;;23.93;21.53;;;;;;;;;;2096916;28;20445;-78
2021/06/18 01:49:51;;;;;;;23.27;21.07;;;;;;;;;;2095812;28;20448;-78
2021/06/18 01:50:54;;;;;;;22.47;20.47;;;;;;;15.06;nan;99301.72;2096624;28;20506;-78
2021/06/18 01:51:57;;;;;;;23.60;21.48;;;;;;;14.99;nan;99291.44;2105308;28;20459;-78
2021/06/18 01:53:00;;;;;;;23.90;21.63;;;;;;;15.05;nan;99225.69;2104358;28;20347;-77
2021/06/18 01:54:02;;;;;;;24.48;21.65;;;;;;;15.01;nan;99299.97;2105326;28;20438;-78
2021/06/18 01:55:03;;;;;;;23.45;21.40;;;;;;;;;;2104869;28;20232;-78
2021/06/18 01:56:06;;;;;;;23.38;21.30;;;;;;;15.00;nan;99303.75;2096871;28;20225;-77
2021/06/18 01:57:07;;;;;;;22.85;20.63;;;;;;;15.01;nan;99309.94;2105340;28;20225;-78
2021/06/18 01:58:11;;;;;;;23.27;21.17;;;;;;;14.97;nan;99299.03;2104435;28;20221;-77
2021/06/18 01:59:12;;;;;;;23.73;21.05;;;;;;;14.99;nan;99329.06;2097111;28;20232;-77
2021/06/18 02:00:16;;;;;;;24.05;21.58;;;;;;;14.97;nan;99305.19;2105315;28;20687;-78
2021/06/18 02:01:18;;;;;;;23.25;20.92;;;;;;;14.96;nan;99319.75;2106015;28;20221;-78
2021/06/18 02:02:21;;;;;;;23.85;21.20;;;;;;;14.92;nan;99350.25;2105887;28;20304;-78
2021/06/18 02:03:25;;;;;;;23.60;21.50;;;;;;;14.94;nan;99321.97;2104601;28;20353;-77
2021/06/18 02:04:28;;;;;;;22.90;20.40;;;;;;;14.94;nan;99321.16;2096707;28;20460;-78
2021/06/18 02:05:30;;;;;;;24.23;21.93;;;;;;;14.93;nan;99309.63;2097020;28;20309;-78
2021/06/18 02:06:33;;;;;;;23.52;21.10;;;;;;;14.90;nan;99309.47;2096362;28;20445;-78
2021/06/18 02:07:36;;;;;;;23.90;21.50;;;;;;;;;;2096905;28;20299;-78
2021/06/18 02:08:37;;;;;;;24.38;21.98;;;;;;;14.85;nan;99409.81;2105209;28;20217;-78
2021/06/18 02:09:39;;;;;;;23.95;21.02;;;;;;;14.90;nan;99304.88;2103851;28;20232;-78
2021/06/18 02:10:43;;;;;;;23.75;21.45;;;;;;;14.90;nan;99314.84;2104991;28;20256;-78
2021/06/18 02:11:44;;;;;;;23.10;21.10;;;;;;;14.87;nan;99358.47;2105913;28;20229;-78
2021/06/18 02:12:46;;;;;;;24.80;22.40;;;;;;;14.88;nan;99311.69;2105976;28;20298;-79
2021/06/18 02:13:48;;;;;;;25.02;22.10;;;;;;;14.87;nan;99305.53;2105171;28;20319;-78
2021/06/18 02:14:49;;;;;;;24.07;21.67;;;;;;;14.86;nan;99303.97;2105108;28;20226;-78
2021/06/18 02:15:52;;;;;;;22.98;20.90;;;;;;;14.82;nan;99361.31;2105066;28;20229;-78
2021/06/18 02:16:56;;;;;;;25.20;21.73;;;;;;;14.82;nan;99307.59;2104703;28;20719;-78
2021/06/18 02:17:57;;;;;;;24.35;21.80;;;;;;;14.84;nan;99316.09;2105748;28;20229;-78
2021/06/18 02:18:59;;;;;;;23.67;21.27;;;;;;;;;;2105814;28;20267;-77
2021/06/18 02:20:01;;;;;;;23.60;21.33;;;;;;;14.83;nan;99325.28;2105819;28;20833;-78
2021/06/18 02:21:04;;;;;;;26.63;22.20;;;;;;;14.79;nan;99319.75;2105389;28;20217;-78
2021/06/18 02:22:06;;;;;;;23.93;21.53;;;;;;;;;;2096506;28;20694;-78
2021/06/18 02:23:10;;;;;;;24.27;21.73;;;;;;;14.77;nan;99327.34;2096453;28;20527;-78
2021/06/18 02:24:11;;;;;;;23.08;20.98;;;;;;;14.74;nan;99354.81;2096498;28;20249;-77
2021/06/18 02:25:14;;;;;;;22.73;20.52;;;;;;;14.78;nan;99381.88;2096483;28;20218;-77
2021/06/18 02:26:15;;;;;;;23.42;20.98;;;;;;;14.75;nan;99328.75;2105097;28;20213;-78
2021/06/18 02:27:17;;;;;;;25.10;22.67;;;;;;;;;;2105818;28;20248;-78
2021/06/18 02:28:19;;;;;;;24.30;21.73;;;;;;;14.72;nan;99318.66;2105776;28;20225;-78
2021/06/18 02:29:21;;;;;;;25.05;22.38;;;;;;;14.70;nan;99321.66;2105279;28;20271;-78
2021/06/18 02:30:23;;;;;;;24.85;22.45;;;;;;;14.69;nan;99314.72;2105048;28;20695;-78
2021/06/18 02:31:28;;;;;;;24.98;22.67;;;;;;;14.67;nan;99317.69;2105453;28;20259;-78
2021/06/18 02:32:31;;;;;;;23.95;21.75;;;;;;;14.65;nan;99309.16;2105242;28;20269;-78
2021/06/18 02:33:32;;;;;;;26.17;22.33;;;;;;;14.63;nan;99305.22;2096582;28;20237;-78
2021/06/18 02:34:34;;;;;;;23.90;21.60;;;;;;;14.62;nan;99304.44;2096466;28;20704;-78
2021/06/18 02:35:35;;;;;;;25.10;22.60;;;;;;;14.58;nan;99361.75;2104943;28;20270;-78
2021/06/18 02:36:37;;;;;;;26.20;23.43;;;;;;;14.59;nan;99304.25;2104773;28;20314;-78
2021/06/18 02:37:40;;;;;;;26.55;23.70;;;;;;;14.56;nan;99354.03;2096370;28;20233;-77
2021/06/18 02:38:41;;;;;;;24.90;22.63;;;;;;;14.52;nan;99294.03;2095682;28;20255;-78
2021/06/18 02:39:43;;;;;;;25.00;22.75;;;;;;;14.53;nan;99305.56;2096192;28;20226;-77
2021/06/18 02:40:46;;;;;;;25.88;23.27;;;;;;;14.51;nan;99356.88;2105009;28;20553;-78
2021/06/18 02:41:46;;;;;;;25.60;23.17;;;;;;;14.52;nan;99379.16;2104525;28;20225;-77
2021/06/18 02:42:48;;;;;;;26.10;22.87;;;;;;;14.51;nan;99307.72;2096450;28;20700;-78
2021/06/18 02:43:49;;;;;;;26.20;23.40;;;;;;;14.49;nan;99293.84;2096180;28;20575;-78
2021/06/18 02:44:51;;;;;;;23.67;21.67;;;;;;;14.50;nan;99306.94;2104986;28;20240;-78
2021/06/18 02:45:51;;;;;;;24.73;22.42;;;;;;;14.51;nan;99308.56;2105591;28;20236;-77
2021/06/18 02:46:57;;;;;;;27.43;22.90;;;;;;;14.49;nan;99310.75;2105196;28;20316;-78
2021/06/18 02:48:01;;;;;;;24.58;22.27;;;;;;;14.47;nan;99355.91;2105490;28;20240;-78
2021/06/18 02:49:05;;;;;;;26.02;23.42;;;;;;;14.49;nan;99300.00;2104252;28;20213;-78
2021/06/18 02:50:10;;;;;;;24.30;22.20;;;;;;;14.48;nan;99298.44;2105018;28;20228;-78
2021/06/18 02:51:16;;;;;;;26.30;23.23;;;;;;;;;;2104270;28;20542;-78
2021/06/18 02:52:22;;;;;;;25.75;23.15;;;;;;;14.44;nan;99281.34;2097213;28;20700;-77
2021/06/18 02:53:27;;;;;;;25.30;22.95;;;;;;;14.45;nan;99314.34;2104476;28;20280;-78
2021/06/18 02:54:31;;;;;;;26.00;23.50;;;;;;;;;;2104154;28;20229;-78
2021/06/18 02:55:39;;;;;;;26.77;24.05;;;;;;;14.42;nan;99321.13;2096828;28;20222;-77
2021/06/18 02:56:43;;;;;;;26.10;23.52;;;;;;;;;;2104610;28;20781;-77
2021/06/18 02:57:51;;;;;;;26.83;23.95;;;;;;;14.40;nan;99308.03;2105607;28;20572;-78
2021/06/18 02:58:55;;;;;;;25.65;22.92;;;;;;;14.42;nan;99310.38;2105702;28;20269;-78
2021/06/18 03:00:00;;;;;;;26.60;24.05;;;;;;;;;;2104386;28;20284;-78
2021/06/18 03:01:03;;;;;;;25.70;23.08;;;;;;;;;;2104587;28;20633;-78
2021/06/18 03:02:08;;;;;;;25.70;23.05;;;;;;;14.36;nan;99290.97;2104748;28;20308;-78
2021/06/18 03:03:11;;;;;;;26.88;24.08;;;;;;;14.37;nan;99313.25;2104577;28;20626;-78
2021/06/18 03:04:19;;;;;;;24.98;22.65;;;;;;;14.37;nan;99314.03;2104049;28;20668;-77
2021/06/18 03:05:23;;;;;;;26.67;23.98;;;;;;;14.39;nan;99311.03;2096975;28;20689;-78
2021/06/18 03:06:24;;;;;;;25.50;22.90;;;;;;;14.31;nan;99287.66;2104462;28;20743;-78
2021/06/18 03:07:28;;;;;;;26.00;23.43;;;;;;;14.36;nan;99307.09;2104600;28;20582;-78
2021/06/18 03:08:34;;;;;;;27.35;24.55;;;;;;;14.37;nan;99340.09;2105077;28;20613;-78
2021/06/18 03:09:40;;;;;;;25.90;23.27;;;;;;;14.37;nan;99297.13;2112602;28;20217;-78
2021/06/18 03:10:43;;;;;;;26.85;23.83;;;;;;;14.38;nan;99309.44;2104987;28;20233;-77
2021/06/18 03:11:46;;;;;;;28.50;25.48;;;;;;;14.33;nan;99377.50;2105504;28;20216;-78
2021/06/18 03:12:47;;;;;;;26.73;23.93;;;;;;;14.36;nan;99381.47;2105366;28;20612;-78
2021/06/18 03:13:51;;;;;;;28.42;25.52;;;;;;;14.39;nan;99322.56;2104441;28;20471;-78
2021/06/18 03:14:55;;;;;;;28.02;25.25;;;;;;;14.39;nan;99289.56;2104226;28;20259;-77
2021/06/18 03:15:57;;;;;;;27.98;24.63;;;;;;;14.40;nan;99317.97;2104452;28;20229;-77
2021/06/18 03:16:59;;;;;;;27.23;24.60;;;;;;;14.41;nan;99319.53;2096292;28;20680;-78
2021/06/18 03:18:02;;;;;;;27.45;24.65;;;;;;;14.43;nan;99392.53;2104601;28;20224;-78
2021/06/18 03:19:06;;;;;;;27.63;24.80;;;;;;;14.45;nan;99325.91;2105433;28;20224;-77
2021/06/18 03:20:10;;;;;;;28.92;24.83;;;;;;;14.44;nan;99308.19;2105415;28;20286;-78
2021/06/18 03:21:11;;;;;;;27.90;24.90;;;;;;;14.47;nan;99307.59;2104057;28;20274;-78
2021/06/18 03:22:15;;;;;;;26.73;23.60;;;;;;;14.43;nan;99366.47;2104677;28;20233;-77
2021/06/18 03:23:17;;;;;;;28.40;25.38;;;;;;;14.50;nan;99312.31;2104425;28;20241;-79
2021/06/18 03:24:19;;;;;;;29.08;25.60;;;;;;;14.50;nan;99382.13;2104675;28;20221;-78
2021/06/18 03:25:21;;;;;;;29.00;26.08;;;;;;;14.54;nan;99317.88;2105414;28;20217;-78
2021/06/18 03:26:23;;;;;;;27.42;24.65;;;;;;;14.57;nan;99322.59;2105340;28;20309;-77
2021/06/18 03:27:24;;;;;;;27.90;24.85;;;;;;;14.61;nan;99323.56;2104239;28;20225;-77
2021/06/18 03:28:26;;;;;;;27.85;25.02;;;;;;;14.62;nan;99320.56;2104605;28;20675;-77
2021/06/18 03:29:28;;;;;;;28.05;25.17;;;;;;;14.63;nan;99321.34;2104336;28;20581;-78
2021/06/18 03:30:30;;;;;;;31.30;24.83;;;;;;;14.61;nan;99313.59;2104519;28;20294;-76
2021/06/18 03:31:35;;;;;;;26.63;24.08;;;;;;;14.63;nan;99322.13;2105224;28;20222;-76
2021/06/18 03:32:38;;;;;;;28.50;24.65;;;;;;;14.67;nan;99327.66;2104550;28;20308;-77
2021/06/18 03:33:40;;;;;;;29.95;24.83;;;;;;;;;;2103704;28;20321;-76
2021/06/18 03:34:43;;;;;;;27.70;24.42;;;;;;;14.69;nan;99314.72;2104632;28;20296;-77
2021/06/18 03:35:46;;;;;;;30.10;25.38;;;;;;;14.66;nan;99379.78;2104638;28;20229;-77
2021/06/18 03:36:48;;;;;;;27.08;24.25;;;;;;;14.72;nan;99319.44;2105319;28;20672;-77
2021/06/18 03:37:49;;;;;;;28.25;25.27;;;;;;;;;;2105320;28;20233;-77
2021/06/18 03:38:52;;;;;;;26.97;24.37;;;;;;;14.77;nan;99327.34;2104345;28;20225;-77
2021/06/18 03:39:52;;;;;;;27.27;24.52;;;;;;;14.78;nan;99328.13;2095618;28;20461;-76
2021/06/18 03:40:55;;;;;;;27.07;24.30;;;;;;;14.80;nan;99326.72;2096174;28;20245;-77
2021/06/18 03:41:56;;;;;;;30.85;24.92;;;;;;;14.81;nan;99317.53;2096252;28;20237;-77
2021/06/18 03:42:58;;;;;;;27.50;24.58;;;;;;;14.82;nan;99335.22;2112816;28;20416;-76
2021/06/18 03:43:59;;;;;;;27.13;24.20;;;;;;;14.85;nan;99344.53;2104392;28;20776;-77
2021/06/18 03:45:03;;;;;;;27.07;24.30;;;;;;;14.86;nan;99341.56;2104462;28;20576;-78
2021/06/18 03:46:05;;;;;;;26.95;24.17;;;;;;;14.90;nan;99347.09;2105268;28;20221;-77
2021/06/18 03:47:07;;;;;;;27.30;23.92;;;;;;;;;;2105179;28;20641;-78
2021/06/18 03:48:09;;;;;;;27.50;24.23;;;;;;;14.88;nan;99365.41;2103920;28;20675;-77
2021/06/18 03:49:12;;;;;;;28.15;25.25;;;;;;;14.94;nan;99401.75;2096079;28;20228;-77
2021/06/18 03:50:14;;;;;;;26.07;23.33;;;;;;;;;;2096197;28;20230;-78
2021/06/18 03:51:16;;;;;;;30.90;25.02;;;;;;;14.98;nan;99354.34;2104654;28;20803;-77
2021/06/18 03:52:18;;;;;;;26.80;24.30;;;;;;;;;;2104293;28;20267;-78
2021/06/18 03:53:20;;;;;;;26.48;23.88;;;;;;;15.02;nan;99338.38;2096078;28;20224;-78
2021/06/18 03:54:22;;;;;;;27.27;24.48;;;;;;;15.09;nan;99334.09;2095204;28;20222;-77
2021/06/18 03:55:24;;;;;;;26.87;24.17;;;;;;;15.11;nan;99342.63;2104080;28;20663;-77
2021/06/18 03:56:25;;;;;;;27.47;24.07;;;;;;;15.13;nan;99335.06;2105166;28;20885;-77
2021/06/18 03:57:27;;;;;;;27.30;24.17;;;;;;;15.12;nan;99391.81;2105209;28;20468;-77
2021/06/18 03:58:28;;;;;;;27.92;24.25;;;;;;;15.15;nan;99337.41;2105135;28;20727;-77
2021/06/18 03:59:32;;;;;;;27.70;24.35;;;;;;;;;;2104941;28;20566;-77
2021/06/18 04:00:34;;;;;;;27.13;24.33;;;;;;;15.17;nan;99330.59;2103775;28;20224;-77
2021/06/18 04:01:38;;;;;;;26.48;23.77;;;;;;;15.23;nan;99334.72;2104390;28;20308;-77
2021/06/18 04:02:39;;;;;;;26.08;23.27;;;;;;;15.22;nan;99397.66;2104945;28;20278;-78
2021/06/18 04:03:42;;;;;;;27.40;23.70;;;;;;;15.24;nan;99325.53;2105139;28;20221;-78
2021/06/18 04:04:44;;;;;;;27.23;24.77;;;;;;;15.30;nan;99253.56;2105261;28;20228;-77
2021/06/18 04:05:46;;;;;;;26.63;23.92;;;;;;;15.32;nan;99332.00;2104314;28;20312;-77
2021/06/18 04:06:47;;;;;;;25.60;23.13;;;;;;;;;;2104517;28;20587;-79
2021/06/18 04:07:50;;;;;;;26.80;24.10;;;;;;;15.36;nan;99332.94;2104458;28;20463;-78
2021/06/18 04:08:51;;;;;;;27.47;24.20;;;;;;;;;;2095978;28;20456;-78
2021/06/18 04:09:53;;;;;;;26.27;23.70;;;;;;;15.40;nan;99339.25;2095913;28;20850;-77
2021/06/18 04:10:54;;;;;;;26.70;24.00;;;;;;;15.42;nan;99341.63;2104071;28;20229;-77
2021/06/18 04:11:56;;;;;;;26.63;24.00;;;;;;;15.42;nan;99384.63;2105000;28;20454;-77
2021/06/18 04:12:58;;;;;;;25.50;23.00;;;;;;;15.45;nan;99475.41;2105882;28;20981;-77
2021/06/18 04:14:02;;;;;;;28.83;24.27;;;;;;;15.47;nan;99344.94;2106579;28;20466;-77
2021/06/18 04:15:03;;;;;;;27.10;24.20;;;;;;;15.49;nan;99347.31;2106853;28;20451;-77
2021/06/18 04:16:06;;;;;;;29.83;23.57;;;;;;;;;;2105844;28;20448;-77
2021/06/18 04:17:07;;;;;;;26.13;23.47;;;;;;;15.53;nan;99338.25;2106246;28;20494;-76
2021/06/18 04:18:11;;;;;;;25.77;23.27;;;;;;;;;;2105735;28;20981;-76
2021/06/18 04:19:12;;;;;;;25.95;23.25;;;;;;;15.57;nan;99354.56;2106202;28;20221;-77
2021/06/18 04:20:16;;;;;;;26.47;23.87;;;;;;;15.59;nan;99341.56;2106337;28;20634;-77
2021/06/18 04:21:19;;;;;;;28.40;23.70;;;;;;;15.56;nan;99379.88;2106171;28;20972;-77
2021/06/18 04:22:24;;;;;;;25.73;23.23;;;;;;;;;;2105910;28;20217;-77
2021/06/18 04:23:28;;;;;;;27.10;24.30;;;;;;;15.67;nan;99354.22;2105718;28;20451;-77
2021/06/18 04:24:30;;;;;;;26.08;23.50;;;;;;;15.69;nan;99352.00;2105944;28;20455;-77
2021/06/18 04:25:31;;;;;;;28.47;25.47;;;;;;;15.72;nan;99340.59;2105946;28;20217;-77
2021/06/18 04:26:32;;;;;;;29.70;25.67;;;;;;;15.75;nan;99355.31;2105976;28;20538;-77
2021/06/18 04:27:33;;;;;;;26.03;23.53;;;;;;;15.77;nan;99300.06;2105926;28;20221;-77
2021/06/18 04:28:36;;;;;;;26.60;23.93;;;;;;;15.79;nan;99345.47;2106165;28;20497;-78
2021/06/18 04:29:37;;;;;;;31.37;24.33;;;;;;;15.81;nan;99349.44;2105944;28;20627;-77
2021/06/18 04:30:38;;;;;;;26.00;23.67;;;;;;;15.83;nan;99352.59;2106792;28;20447;-77
2021/06/18 04:31:39;;;;;;;27.17;24.43;;;;;;;15.87;nan;99351.94;2106374;28;20252;-76
2021/06/18 04:32:42;;;;;;;26.70;24.03;;;;;;;15.89;nan;99365.84;2105393;28;20459;-77
2021/06/18 04:33:43;;;;;;;26.83;23.80;;;;;;;15.90;nan;99345.88;2096883;28;20230;-77
2021/06/18 04:34:44;;;;;;;30.47;25.27;;;;;;;15.92;nan;99344.47;2097191;28;21039;-77
2021/06/18 04:35:47;;;;;;;26.00;23.20;;;;;;;15.97;nan;99357.72;2097370;28;20253;-77
2021/06/18 04:36:48;;;;;;;25.67;23.37;;;;;;;16.01;nan;99347.13;2105730;28;20459;-77
2021/06/18 04:37:50;;;;;;;26.13;23.63;;;;;;;16.04;nan;99368.78;2114363;28;20932;-77
2021/06/18 04:38:51;;;;;;;26.23;23.50;;;;;;;16.05;nan;99354.22;2105709;28;20291;-77
2021/06/18 04:39:54;;;;;;;26.47;23.80;;;;;;;16.10;nan;99335.19;2105972;28;20462;-77
2021/06/18 04:40:55;;;;;;;26.43;23.20;;;;;;;16.13;nan;99359.88;2105244;28;20225;-77
2021/06/18 04:41:58;;;;;;;26.17;23.33;;;;;;;16.16;nan;99370.78;2105800;28;20467;-76
2021/06/18 04:42:59;;;;;;;26.77;23.87;;;;;;;16.18;nan;99352.41;2105682;28;20459;-77
2021/06/18 04:44:00;;;;;;;27.07;23.40;;;;;;;;;;2097627;28;20591;-76
2021/06/18 04:45:01;;;;;;;25.93;23.20;;;;;;;;;;2097198;28;20472;-77
2021/06/18 04:46:03;;;;;;;26.47;23.63;;;;;;;16.29;nan;99359.00;2096739;28;20970;-77
2021/06/18 04:47:04;;;;;;;26.30;23.60;;;;;;;16.39;nan;99353.22;2097606;28;20226;-77
2021/06/18 04:48:07;;;;;;;25.03;22.50;;;;;;;16.38;nan;99357.03;2105846;28;20459;-77
2021/06/18 04:49:08;;;;;;;25.30;22.83;;;;;;;16.40;nan;99354.78;2104554;28;20224;-76
2021/06/18 04:50:10;;;;;;;25.40;22.63;;;;;;;16.43;nan;99368.75;2105771;28;20526;-77
2021/06/18 04:51:14;;;;;;;23.67;21.53;;;;;;;16.46;nan;99357.31;2105818;28;20233;-77
2021/06/18 04:52:17;;;;;;;25.80;22.30;;;;;;;;;;2105877;28;20807;-76
2021/06/18 04:53:19;;;;;;;25.27;22.50;;;;;;;16.49;nan;99351.25;2105546;28;20451;-77
2021/06/18 04:54:21;;;;;;;25.07;22.50;;;;;;;16.52;nan;99367.56;2105749;28;20471;-77
2021/06/18 04:55:24;;;;;;;25.20;22.90;;;;;;;16.56;nan;99356.91;2106430;28;20451;-77
2021/06/18 04:56:24;;;;;;;28.13;23.00;;;;;;;16.58;nan;99370.84;2105991;28;20779;-77
2021/06/18 04:57:26;;;;;;;24.93;22.60;;;;;;;16.60;nan;99364.03;2106487;28;20512;-77
2021/06/18 04:58:27;;;;;;;25.23;22.53;;;;;;;16.63;nan;99347.19;2106433;28;20228;-77
2021/06/18 04:59:28;;;;;;;24.67;22.27;;;;;;;16.67;nan;99348.09;2106526;28;20458;-77
2021/06/18 05:00:29;;;;;;;25.60;22.87;;;;;;;16.68;nan;99343.53;2106496;28;20229;-77
2021/06/18 05:01:31;;;;;;;27.77;23.03;;;;;;;16.70;nan;99341.31;2106405;28;20439;-77